Nearby METAR Reports

 

KHQM - Hoquiam,WA, USA
Updated: Thu, 13-Aug-2020 5:53pm PDT
Clear
Clear
 Wind from WNW
Wind: WNW 14 mph , 22 km/h
Temperature: 64°F , 18°C
Dew Point: 52°F , 11°C
Humidity: 64%
Barometer: 30.19 inHg , 1022.4 hPa
Clouds: Clear
Visibility: 10 miles , 16 km
2020/08/14 00:53 KHQM 140053Z AUTO 29012KT 10SM CLR 18/11 A3019 RMK AO2 SLP226 T01780111
KAST - Astoria,OR, USA
Updated: Thu, 13-Aug-2020 5:55pm PDT
Clear
Clear
 Wind from NW
Wind: NW 14 mph , 22 km/h
Temperature: 64°F , 18°C
Dew Point: 50°F , 10°C
Humidity: 60%
Barometer: 30.18 inHg , 1022 hPa
Clouds: Clear
Visibility: 10 miles , 16 km
2020/08/14 00:55 KAST 140055Z AUTO 31012KT 10SM CLR 18/10 A3018 RMK AO2 SLP219 T01830100